Disclaimer

Please do not use the information listed here in-flight or in-navigation, as they are not provided to us by the airports but are provided by volunteers, so they might be outdated.

Search


Regions


Airport information page

Radio informations:
LIMOGES TWR - 118.175 MHz
LIMOGES INFO - 124.05 MHz
Automatic Terminal Information Service (ATIS) - 128.075 MHz
LIMOGES APP - 119.2 MHz

Airport informations:
Latitude: 45° 51' 46.00" N
Longitude: 001° 10' 46.00" E
Elevation: 1300 feet - 396 meters
Operating hours: Remarks
Operating agency: Civil government, landing fees and diplomatic clearance may be required
Timezone: UTC+1(+2DT) - Last Sunday in March to last Sunday in October
Fuel: Jet A1, without icing nhibitor.

100/130 MIL Spec, low lead, aviation gasoline (BLUE)

Runway information:
03/21 - 8202 x 148 feet< - >2500 x 45 meters

Recent METARs:
LFBL 211900Z AUTO 07003KT 050V120 CAVOK 05/M00 Q1012 NOSIG
LFBL 211930Z AUTO 06003KT CAVOK 05/M01 Q1012 NOSIG
LFBL 212000Z AUTO 06004KT CAVOK 05/M01 Q1012 NOSIG

Airport on the map: